Time;durP1;ratioP1;P1;durP2;ratioP2;P2;SDS_P1;SDS_P2;PMS_P1;PMS_P2;Temp;Humidity;BMP_temperature;BMP_pressure;BME280_temperature;BME280_humidity;BME280_pressure;Samples;Min_cycle;Max_cycle;Signal;HPM_P1;HPM_P2
2023/03/08 00:01:08;;;;;;;9.70;6.63;;;;;;;-1.00;100.00;96818.84;5138963;27;20058;-61
2023/03/08 00:03:35;;;;;;;12.63;6.95;;;;;;;-1.12;100.00;96810.84;5138474;28;20051;-61
2023/03/08 00:06:03;;;;;;;20.83;8.82;;;;;;;-0.99;100.00;96793.50;5138926;27;20133;-62
2023/03/08 00:08:30;;;;;;;18.85;8.68;;;;;;;-0.90;100.00;96774.53;5138736;28;20055;-60
2023/03/08 00:10:57;;;;;;;15.73;6.53;;;;;;;-0.94;100.00;96741.34;5138593;27;20051;-62
2023/03/08 00:13:23;;;;;;;17.75;7.55;;;;;;;-0.89;100.00;96751.09;5138461;27;20055;-60
2023/03/08 00:15:49;;;;;;;20.00;9.20;;;;;;;-0.75;100.00;96735.25;5138487;27;20103;-63
2023/03/08 00:18:16;;;;;;;16.77;7.80;;;;;;;-0.75;100.00;96719.13;5138474;27;20059;-60
2023/03/08 00:20:42;;;;;;;16.92;8.20;;;;;;;-0.79;100.00;96697.53;5138371;28;20058;-62
2023/03/08 00:23:08;;;;;;;15.95;7.32;;;;;;;-0.72;100.00;96708.44;5138129;28;20404;-61
2023/03/08 00:25:35;;;;;;;21.98;7.95;;;;;;;-0.80;100.00;96717.50;5138302;28;20047;-61
2023/03/08 00:28:02;;;;;;;15.38;8.30;;;;;;;-0.63;100.00;96750.50;5138622;28;20051;-61
2023/03/08 00:30:28;;;;;;;20.77;9.32;;;;;;;-0.60;100.00;96764.06;5138140;27;20154;-60
2023/03/08 00:32:54;;;;;;;19.95;9.27;;;;;;;-0.71;100.00;96766.50;5138576;28;20055;-63
2023/03/08 00:35:20;;;;;;;10.15;5.60;;;;;;;-0.76;100.00;96788.28;5138246;27;20055;-61
2023/03/08 00:37:47;;;;;;;16.63;8.02;;;;;;;-0.73;100.00;96809.13;5137879;28;20412;-62
2023/03/08 00:40:13;;;;;;;16.67;8.45;;;;;;;-0.67;100.00;96820.38;5137990;28;20051;-60
2023/03/08 00:42:39;;;;;;;16.45;8.45;;;;;;;-0.65;100.00;96799.31;5138116;27;20051;-61
2023/03/08 00:45:08;;;;;;;19.50;9.95;;;;;;;-0.58;100.00;96786.00;5138010;27;20051;-60
2023/03/08 00:47:34;;;;;;;17.10;8.35;;;;;;;-0.45;100.00;96821.69;5137793;27;20051;-62
2023/03/08 00:50:00;;;;;;;21.52;9.05;;;;;;;-0.44;100.00;96892.44;5138149;27;20047;-60
2023/03/08 00:52:28;;;;;;;21.60;9.82;;;;;;;-0.60;100.00;96965.91;5138030;28;20333;-63
2023/03/08 00:54:54;;;;;;;19.48;9.18;;;;;;;-0.49;100.00;97044.22;5138283;27;20324;-61
2023/03/08 00:57:20;;;;;;;17.17;9.18;;;;;;;-0.81;100.00;97111.38;5137907;27;20058;-59
2023/03/08 00:59:46;;;;;;;21.05;10.75;;;;;;;-0.69;100.00;97202.06;5138181;27;20219;-63
2023/03/08 01:02:13;;;;;;;19.20;9.48;;;;;;;-0.63;100.00;97265.31;5137480;27;20080;-60
2023/03/08 01:04:39;;;;;;;18.40;9.93;;;;;;;-0.75;100.00;97289.50;5137455;27;20434;-62
2023/03/08 01:07:06;;;;;;;22.77;9.60;;;;;;;-0.67;100.00;97338.97;5137844;27;20050;-60
2023/03/08 01:09:32;;;;;;;24.58;11.32;;;;;;;-0.66;100.00;97375.53;5137716;28;20137;-62
2023/03/08 01:11:58;;;;;;;22.88;10.98;;;;;;;-0.60;100.00;97399.19;5137811;28;20447;-59
2023/03/08 01:14:24;;;;;;;25.63;12.15;;;;;;;-0.55;100.00;97415.13;5137472;27;20055;-62
2023/03/08 01:16:50;;;;;;;26.10;11.70;;;;;;;-0.60;100.00;97423.41;5137629;27;20051;-61
2023/03/08 01:19:17;;;;;;;26.65;12.43;;;;;;;-0.49;100.00;97429.16;5137291;27;20107;-61
2023/03/08 01:21:43;;;;;;;25.98;11.00;;;;;;;-0.43;100.00;97422.44;5137742;27;20051;-62
2023/03/08 01:24:10;;;;;;;28.70;12.63;;;;;;;-0.35;100.00;97420.75;5136925;28;20061;-60
2023/03/08 01:26:36;;;;;;;25.83;12.60;;;;;;;-0.29;100.00;97420.19;5137226;27;20108;-62
2023/03/08 01:29:02;;;;;;;17.98;9.65;;;;;;;-0.30;100.00;97404.34;5137204;27;20055;-60
2023/03/08 01:31:30;;;;;;;23.67;12.13;;;;;;;-0.19;100.00;97383.94;5137702;27;20103;-62
2023/03/08 01:33:57;;;;;;;20.00;10.68;;;;;;;-0.15;100.00;97366.00;5137104;27;20047;-62
2023/03/08 01:36:26;;;;;;;28.52;12.35;;;;;;;-0.01;100.00;97342.16;5137083;27;20057;-60
2023/03/08 01:38:53;;;;;;;32.42;12.10;;;;;;;-0.08;100.00;97339.25;5137390;27;20058;-62
2023/03/08 01:41:22;;;;;;;31.25;14.57;;;;;;;-0.04;100.00;97315.91;5137260;28;20058;-61
2023/03/08 01:43:49;;;;;;;22.02;11.60;;;;;;;0.03;100.00;97295.69;5137293;28;20051;-63
2023/03/08 01:46:22;;;;;;;36.70;12.55;;;;;;;-0.03;100.00;97262.84;5137140;28;20081;-62
2023/03/08 01:48:52;;;;;;;25.58;11.02;;;;;;;0.05;100.00;97269.22;5137364;27;20055;-62
2023/03/08 01:51:23;;;;;;;27.50;14.07;;;;;;;0.16;100.00;97249.50;5136947;28;20128;-60
2023/03/08 01:53:51;;;;;;;32.90;13.55;;;;;;;0.16;100.00;97240.63;5137702;28;20084;-63
2023/03/08 01:56:19;;;;;;;23.83;10.90;;;;;;;-0.05;100.00;97225.44;5136851;28;20047;-62
2023/03/08 01:58:48;;;;;;;22.90;12.55;;;;;;;0.06;100.00;97192.63;5136803;27;20055;-60
2023/03/08 02:01:14;;;;;;;30.83;15.38;;;;;;;0.29;100.00;97187.47;5137181;28;20062;-60
2023/03/08 02:03:40;;;;;;;27.85;14.10;;;;;;;0.22;100.00;97171.91;5136782;27;20053;-62
2023/03/08 02:06:08;;;;;;;26.83;11.40;;;;;;;0.25;100.00;97159.66;5137104;27;20043;-60
2023/03/08 02:08:34;;;;;;;25.83;11.77;;;;;;;0.27;100.00;97149.28;5136882;28;20123;-61
2023/03/08 02:11:01;;;;;;;31.30;14.02;;;;;;;0.37;100.00;97140.72;5137131;28;20051;-61
2023/03/08 02:13:28;;;;;;;20.02;11.52;;;;;;;0.36;100.00;97150.69;5137073;28;20377;-62
2023/03/08 02:15:56;;;;;;;30.30;14.52;;;;;;;0.41;100.00;97153.16;5137242;28;20043;-62
2023/03/08 02:18:23;;;;;;;17.45;9.63;;;;;;;0.38;100.00;97156.53;5136534;28;20055;-61
2023/03/08 02:20:49;;;;;;;19.20;10.23;;;;;;;0.34;100.00;97154.88;5137111;28;20111;-62
2023/03/08 02:23:17;;;;;;;20.15;9.88;;;;;;;0.22;100.00;97153.81;5136444;27;20051;-61
2023/03/08 02:25:51;;;;;;;23.70;11.82;;;;;;;0.37;100.00;97138.81;5136781;27;20047;-60
2023/03/08 02:28:18;;;;;;;29.63;13.45;;;;;;;0.45;100.00;97121.66;5136846;27;20051;-62
2023/03/08 02:30:44;;;;;;;36.63;16.55;;;;;;;0.59;100.00;97117.75;5136409;27;20408;-62
2023/03/08 02:35:55;;;;;;;25.33;11.93;;;;;;;0.52;100.00;97117.56;5139242;27;20341;-62
2023/03/08 02:38:22;;;;;;;30.15;12.70;;;;;;;0.43;100.00;97109.66;5140204;27;20054;-60
2023/03/08 02:40:50;;;;;;;30.38;15.77;;;;;;;0.42;100.00;97108.09;5140055;27;20088;-62
2023/03/08 02:43:17;;;;;;;29.42;13.93;;;;;;;0.57;100.00;97096.53;5140336;27;20043;-60
2023/03/08 02:45:43;;;;;;;28.17;13.77;;;;;;;0.57;100.00;97099.22;5139721;27;20047;-60
2023/03/08 02:48:10;;;;;;;25.77;11.30;;;;;;;0.46;100.00;97103.56;5139704;27;20066;-61
2023/03/08 02:50:36;;;;;;;32.08;14.93;;;;;;;0.70;100.00;97081.03;5140166;28;20051;-63
2023/03/08 02:53:02;;;;;;;27.10;13.77;;;;;;;0.67;100.00;97087.13;5139905;27;20051;-60
2023/03/08 02:55:29;;;;;;;25.30;12.25;;;;;;;0.52;100.00;97086.00;5139785;27;20061;-61
2023/03/08 02:57:55;;;;;;;28.65;13.75;;;;;;;0.59;100.00;97074.59;5139707;27;20055;-59
2023/03/08 03:00:21;;;;;;;27.30;13.73;;;;;;;0.57;100.00;97064.19;5139817;27;20047;-62
2023/03/08 03:02:48;;;;;;;29.45;15.32;;;;;;;0.61;100.00;97042.69;5139588;27;20458;-60
2023/03/08 03:05:14;;;;;;;28.27;14.40;;;;;;;0.59;100.00;97042.25;5139847;27;20047;-62
2023/03/08 03:07:42;;;;;;;31.33;14.73;;;;;;;0.62;100.00;97036.94;5139545;28;20347;-61
2023/03/08 03:10:11;;;;;;;24.52;11.63;;;;;;;0.65;100.00;97022.75;5139891;27;20051;-63
2023/03/08 03:12:38;;;;;;;26.13;13.40;;;;;;;0.61;100.00;97031.91;5139410;28;20115;-61
2023/03/08 03:15:06;;;;;;;32.58;14.27;;;;;;;0.68;100.00;97010.47;5139847;27;20103;-63
2023/03/08 03:17:33;;;;;;;33.05;16.13;;;;;;;0.73;100.00;97007.50;5139495;28;20051;-61
2023/03/08 03:19:59;;;;;;;23.75;11.18;;;;;;;0.62;100.00;97006.50;5139457;28;20112;-60
2023/03/08 03:22:27;;;;;;;22.30;12.23;;;;;;;0.66;100.00;97010.03;5139592;27;20054;-61
2023/03/08 03:24:53;;;;;;;24.38;12.02;;;;;;;0.65;100.00;97003.09;5139330;28;20340;-62
2023/03/08 03:27:19;;;;;;;23.98;12.63;;;;;;;0.72;100.00;96994.38;5139515;28;20055;-60
2023/03/08 03:29:46;;;;;;;19.98;11.32;;;;;;;0.61;100.00;96992.22;5139156;27;20047;-60
2023/03/08 03:32:12;;;;;;;22.15;11.93;;;;;;;0.65;100.00;96986.91;5139207;28;20444;-62
2023/03/08 03:34:39;;;;;;;22.20;11.82;;;;;;;0.75;100.00;96985.56;5138935;27;20050;-61
2023/03/08 03:37:05;;;;;;;20.80;12.20;;;;;;;0.69;100.00;96979.66;5139451;28;20112;-63
2023/03/08 03:39:36;;;;;;;24.13;12.23;;;;;;;0.71;100.00;96977.41;5139067;28;20069;-61
2023/03/08 03:42:02;;;;;;;18.98;10.38;;;;;;;0.63;100.00;96981.88;5139341;27;20401;-61
2023/03/08 03:44:29;;;;;;;19.85;9.65;;;;;;;0.70;100.00;96970.47;5138911;27;20062;-60
2023/03/08 03:46:56;;;;;;;22.75;11.98;;;;;;;0.60;100.00;96965.59;5138842;27;20051;-63
2023/03/08 03:49:22;;;;;;;22.08;11.55;;;;;;;0.74;100.00;96957.84;5138909;27;20055;-61
2023/03/08 03:51:48;;;;;;;25.77;12.68;;;;;;;0.75;100.00;96948.59;5138987;28;20058;-63
2023/03/08 03:54:15;;;;;;;27.00;12.63;;;;;;;0.70;100.00;96949.66;5139151;27;20042;-61
2023/03/08 03:56:41;;;;;;;19.42;10.38;;;;;;;0.67;100.00;96947.69;5138652;28;20057;-63
2023/03/08 03:59:07;;;;;;;24.13;10.85;;;;;;;0.64;100.00;96940.28;5138947;28;20062;-61
2023/03/08 04:01:33;;;;;;;18.33;10.80;;;;;;;0.63;100.00;96936.03;5138634;27;20193;-63
2023/03/08 04:04:00;;;;;;;22.23;10.65;;;;;;;0.78;100.00;96931.72;5139260;27;20099;-61
2023/03/08 04:06:27;;;;;;;20.30;11.18;;;;;;;0.69;100.00;96931.13;5138607;28;20062;-63
2023/03/08 04:08:55;;;;;;;26.33;12.32;;;;;;;0.80;100.00;96920.56;5138967;27;20055;-62
2023/03/08 04:11:23;;;;;;;19.80;10.32;;;;;;;0.73;100.00;96928.50;5138412;27;20365;-63
2023/03/08 04:13:50;;;;;;;19.73;10.77;;;;;;;0.70;100.00;96922.69;5138543;27;20378;-63
2023/03/08 04:16:18;;;;;;;20.65;8.32;;;;;;;0.67;100.00;96928.81;5138407;27;20062;-63
2023/03/08 04:18:45;;;;;;;20.13;11.23;;;;;;;0.73;100.00;96918.50;5138207;27;20047;-63
2023/03/08 04:21:13;;;;;;;22.25;11.45;;;;;;;0.83;100.00;96917.94;5138586;28;20103;-63
2023/03/08 04:23:40;;;;;;;19.30;10.27;;;;;;;0.73;100.00;96923.88;5138410;28;20389;-61
2023/03/08 04:26:07;;;;;;;24.50;12.68;;;;;;;0.80;100.00;96925.94;5138471;28;20058;-63
2023/03/08 04:28:33;;;;;;;21.40;12.02;;;;;;;0.70;100.00;96920.00;5138130;28;20051;-62
2023/03/08 04:31:00;;;;;;;25.25;13.45;;;;;;;0.86;100.00;96909.13;5138139;27;20061;-64
2023/03/08 04:33:26;;;;;;;26.45;13.75;;;;;;;0.85;100.00;96917.59;5138186;28;20373;-62
2023/03/08 04:35:52;;;;;;;20.40;10.20;;;;;;;0.71;100.00;96926.19;5138429;27;20096;-62
2023/03/08 04:38:19;;;;;;;22.38;12.43;;;;;;;0.83;100.00;96917.94;5137870;27;20055;-62
2023/03/08 04:41:04;;;;;;;13.60;7.45;;;;;;;0.70;100.00;96914.63;5138207;28;20069;-61
2023/03/08 04:43:31;;;;;;;21.52;11.20;;;;;;;0.75;100.00;96910.84;5138316;27;20138;-61
2023/03/08 04:45:58;;;;;;;21.95;10.98;;;;;;;0.76;100.00;96908.91;5138058;28;20051;-61
2023/03/08 04:48:24;;;;;;;18.83;10.57;;;;;;;0.79;100.00;96906.28;5138298;27;20115;-61
2023/03/08 04:50:52;;;;;;;22.48;12.27;;;;;;;0.87;100.00;96913.41;5137939;27;20062;-63
2023/03/08 04:53:19;;;;;;;29.35;12.23;;;;;;;0.69;100.00;96915.72;5138089;27;20058;-61
2023/03/08 04:55:45;;;;;;;21.50;11.13;;;;;;;0.72;100.00;96914.25;5137816;28;20324;-63
2023/03/08 04:58:12;;;;;;;20.95;11.48;;;;;;;0.76;100.00;96911.63;5137172;27;20087;-61
2023/03/08 05:00:38;;;;;;;18.88;8.93;;;;;;;0.75;100.00;96910.84;5137702;28;20055;-63
2023/03/08 05:03:05;;;;;;;17.30;9.85;;;;;;;0.85;100.00;96920.28;5138117;27;20051;-61
2023/03/08 05:05:31;;;;;;;24.38;12.95;;;;;;;0.97;100.00;96905.84;5137818;27;20050;-62
2023/03/08 05:07:58;;;;;;;18.27;9.77;;;;;;;0.91;100.00;96910.78;5137782;28;20055;-60
2023/03/08 05:10:25;;;;;;;16.27;9.20;;;;;;;0.82;100.00;96926.38;5138106;27;20051;-63
2023/03/08 05:12:51;;;;;;;16.75;10.50;;;;;;;0.81;100.00;96931.00;5137664;28;20100;-61
2023/03/08 05:15:17;;;;;;;21.40;11.40;;;;;;;0.96;100.00;96907.78;5138141;28;20324;-63
2023/03/08 05:17:45;;;;;;;19.08;9.77;;;;;;;0.86;100.00;96928.00;5137582;28;20301;-62
2023/03/08 05:20:11;;;;;;;19.90;9.82;;;;;;;0.86;100.00;96919.91;5137679;27;20484;-63
2023/03/08 05:22:37;;;;;;;25.05;10.13;;;;;;;0.90;100.00;96920.78;5137307;28;20431;-64
2023/03/08 05:25:04;;;;;;;17.25;10.00;;;;;;;0.93;100.00;96924.66;5137737;27;20459;-60
2023/03/08 05:27:32;;;;;;;14.98;8.88;;;;;;;0.92;100.00;96931.97;5137322;28;20047;-61
2023/03/08 05:29:59;;;;;;;17.75;8.98;;;;;;;0.91;100.00;96933.13;5137819;28;20047;-61
2023/03/08 05:32:25;;;;;;;19.38;10.13;;;;;;;0.91;100.00;96930.44;5137393;27;20051;-62
2023/03/08 05:34:51;;;;;;;16.88;9.75;;;;;;;1.02;100.00;96935.25;5137363;27;20404;-61
2023/03/08 05:37:18;;;;;;;22.48;10.52;;;;;;;1.25;100.00;96940.69;5137496;27;20051;-62
2023/03/08 05:39:44;;;;;;;17.15;9.80;;;;;;;0.89;100.00;96959.66;5137250;27;20051;-63
2023/03/08 05:42:11;;;;;;;16.92;8.98;;;;;;;0.92;100.00;96948.16;5137656;28;20054;-60
2023/03/08 05:44:38;;;;;;;20.20;10.63;;;;;;;1.10;100.00;96948.53;5137082;27;20053;-63
2023/03/08 05:47:05;;;;;;;17.33;9.40;;;;;;;0.92;100.00;96963.56;5137444;27;20047;-60
2023/03/08 05:49:31;;;;;;;18.88;10.07;;;;;;;0.87;100.00;96961.19;5136994;28;20090;-61
2023/03/08 05:51:57;;;;;;;20.92;11.65;;;;;;;1.37;100.00;96952.13;5137385;28;20043;-62
2023/03/08 05:54:23;;;;;;;18.88;11.00;;;;;;;1.10;100.00;96961.22;5136990;27;20047;-61
2023/03/08 05:56:49;;;;;;;18.08;9.38;;;;;;;1.01;100.00;96982.25;5137373;28;20051;-63
2023/03/08 05:59:16;;;;;;;19.23;10.25;;;;;;;0.92;100.00;96971.66;5136776;27;20425;-60
2023/03/08 06:01:43;;;;;;;23.50;10.50;;;;;;;1.06;100.00;96977.34;5136757;27;20047;-60
2023/03/08 06:04:09;;;;;;;18.95;9.93;;;;;;;1.10;100.00;96972.00;5137096;27;20047;-62
2023/03/08 06:06:36;;;;;;;18.42;9.68;;;;;;;1.32;100.00;96981.31;5136806;28;20047;-61
2023/03/08 06:09:02;;;;;;;15.93;8.98;;;;;;;1.14;100.00;96987.16;5138398;27;20050;-62
2023/03/08 06:11:28;;;;;;;17.50;9.40;;;;;;;1.08;100.00;96999.38;5140700;27;20046;-61
2023/03/08 06:13:55;;;;;;;18.33;9.82;;;;;;;1.02;100.00;97008.88;5140384;27;20043;-64
2023/03/08 06:16:21;;;;;;;22.45;11.02;;;;;;;1.36;100.00;97009.94;5140384;28;20062;-61
2023/03/08 06:18:48;;;;;;;22.45;10.82;;;;;;;1.02;100.00;97040.47;5140709;28;20047;-62
2023/03/08 06:21:16;;;;;;;22.55;11.15;;;;;;;1.18;100.00;97025.00;5140283;28;20062;-61
2023/03/08 06:23:44;;;;;;;18.75;10.52;;;;;;;1.06;100.00;97034.00;5140649;28;20047;-63
2023/03/08 06:26:10;;;;;;;15.45;9.48;;;;;;;1.43;100.00;97033.59;5140128;27;20046;-61
2023/03/08 06:28:39;;;;;;;21.13;10.60;;;;;;;1.68;100.00;97068.41;5140604;28;20103;-63
2023/03/08 06:31:43;;;;;;;17.83;9.27;;;;;;;1.39;100.00;97127.22;5140402;28;20370;-62
2023/03/08 06:34:11;;;;;;;8.95;5.53;;;;;;;0.91;100.00;97150.88;5140098;27;20055;-61
2023/03/08 06:36:37;;;;;;;6.70;3.45;;;;;;;1.00;100.00;97210.84;5139876;27;20050;-63
2023/03/08 06:39:05;;;;;;;3.30;2.60;;;;;;;0.97;100.00;97262.78;5140168;27;20058;-61
2023/03/08 06:41:32;;;;;;;2.72;1.73;;;;;;;0.89;100.00;97337.34;5140272;27;20043;-63
2023/03/08 06:43:58;;;;;;;6.78;2.28;;;;;;;1.07;100.00;97396.44;5140205;27;20066;-61
2023/03/08 06:46:24;;;;;;;3.08;2.10;;;;;;;1.06;100.00;97411.81;5140445;28;20050;-62
2023/03/08 06:48:51;;;;;;;5.80;1.15;;;;;;;0.83;100.00;97395.38;5139699;27;20331;-62
2023/03/08 06:51:18;;;;;;;5.05;1.58;;;;;;;0.89;100.00;97347.38;5139740;28;20087;-62
2023/03/08 06:53:46;;;;;;;10.90;2.22;;;;;;;1.07;100.00;97294.66;5139762;28;20051;-61
2023/03/08 06:56:14;;;;;;;6.53;1.35;;;;;;;0.82;100.00;97250.84;5139660;28;20473;-61
2023/03/08 06:58:41;;;;;;;6.50;1.73;;;;;;;0.88;100.00;97173.16;5139903;27;20370;-61
2023/03/08 07:01:08;;;;;;;4.10;1.30;;;;;;;1.05;100.00;97118.03;5139683;27;20114;-62
2023/03/08 07:03:35;;;;;;;3.45;1.60;;;;;;;0.76;100.00;97009.50;5140010;27;20058;-60
2023/03/08 07:06:02;;;;;;;3.08;1.25;;;;;;;0.69;100.00;96934.59;5139455;27;20057;-62
2023/03/08 07:08:30;;;;;;;1.38;0.90;;;;;;;1.20;100.00;96935.56;5139933;28;20055;-61
2023/03/08 07:10:57;;;;;;;2.50;1.55;;;;;;;1.26;100.00;96837.75;5139614;27;20134;-61
2023/03/08 07:13:23;;;;;;;3.63;1.30;;;;;;;1.60;100.00;96770.38;5139830;27;20067;-63
2023/03/08 07:15:50;;;;;;;4.88;1.73;;;;;;;1.47;100.00;96725.88;5139321;28;20047;-61
2023/03/08 07:18:16;;;;;;;2.53;1.52;;;;;;;1.41;100.00;96691.06;5139481;28;20047;-61
2023/03/08 07:20:42;;;;;;;1.42;1.33;;;;;;;1.35;100.00;96765.41;5138566;27;20091;-63
2023/03/08 07:23:08;;;;;;;4.78;1.90;;;;;;;1.01;100.00;96753.69;5139241;28;20051;-62
2023/03/08 07:25:37;;;;;;;5.47;2.28;;;;;;;1.23;100.00;96864.69;5139303;28;20047;-62
2023/03/08 07:28:04;;;;;;;5.55;1.88;;;;;;;1.33;100.00;96932.38;5139147;27;20054;-60
2023/03/08 07:30:30;;;;;;;6.15;2.35;;;;;;;1.11;100.00;96958.19;5139345;27;20057;-61
2023/03/08 07:32:56;;;;;;;7.82;2.67;;;;;;;1.28;100.00;97023.66;5139276;28;20227;-63
2023/03/08 07:35:22;;;;;;;3.70;1.80;;;;;;;1.34;100.00;97062.75;5139309;27;20051;-61
2023/03/08 07:37:49;;;;;;;4.05;1.80;;;;;;;1.47;100.00;97095.78;5138953;28;20051;-64
2023/03/08 07:40:16;;;;;;;8.32;1.90;;;;;;;1.41;100.00;97143.88;5139450;27;20061;-61
2023/03/08 07:42:44;;;;;;;5.18;1.95;;;;;;;1.44;100.00;97177.50;5138929;28;20047;-63
2023/03/08 07:45:11;;;;;;;4.90;2.03;;;;;;;1.53;100.00;97180.75;5138897;27;20047;-63
2023/03/08 07:47:39;;;;;;;4.47;2.03;;;;;;;1.59;100.00;97196.31;5139162;27;20051;-63
2023/03/08 07:50:06;;;;;;;3.20;2.00;;;;;;;1.32;100.00;97229.69;5139055;28;20138;-62
2023/03/08 07:52:32;;;;;;;6.93;2.60;;;;;;;1.88;100.00;97229.34;5139109;27;20309;-63
2023/03/08 07:55:01;;;;;;;11.45;2.95;;;;;;;1.76;100.00;97170.03;5138553;28;20057;-61
2023/03/08 07:57:27;;;;;;;3.40;1.58;;;;;;;1.54;100.00;97149.94;5138930;27;20047;-61
2023/03/08 07:59:54;;;;;;;4.60;1.98;;;;;;;1.83;100.00;97135.84;5138767;28;20141;-64
2023/03/08 08:02:20;;;;;;;5.00;2.15;;;;;;;1.91;100.00;97104.34;5138948;27;20059;-63
2023/03/08 08:04:46;;;;;;;3.85;1.40;;;;;;;2.08;100.00;96995.75;5138542;27;20054;-61
2023/03/08 08:07:15;;;;;;;5.30;1.75;;;;;;;2.03;100.00;96855.56;5138934;27;20425;-61
2023/03/08 08:09:41;;;;;;;1.52;1.40;;;;;;;1.87;100.00;96784.69;5138579;28;20054;-61
2023/03/08 08:12:08;;;;;;;4.10;1.42;;;;;;;1.59;100.00;96739.91;5138915;27;20051;-61
2023/03/08 08:14:34;;;;;;;8.80;1.55;;;;;;;1.60;100.00;96686.66;5138465;28;20078;-61
2023/03/08 08:17:01;;;;;;;9.07;1.48;;;;;;;1.57;100.00;96687.44;5138350;28;20416;-61
2023/03/08 08:19:28;;;;;;;2.25;1.23;;;;;;;1.43;100.00;96666.41;5138588;28;20368;-61
2023/03/08 08:21:54;;;;;;;3.60;1.33;;;;;;;1.81;100.00;96614.03;5138300;27;20324;-61
2023/03/08 08:24:20;;;;;;;3.95;2.28;;;;;;;1.63;100.00;96629.22;5138414;28;20072;-62
2023/03/08 08:26:47;;;;;;;4.38;1.50;;;;;;;1.68;100.00;96636.25;5138216;28;20137;-60
2023/03/08 08:29:13;;;;;;;3.08;1.83;;;;;;;1.59;100.00;96648.09;5138580;28;20052;-63
2023/03/08 08:31:40;;;;;;;2.40;1.65;;;;;;;1.39;100.00;96647.44;5137338;27;20137;-62
2023/03/08 08:34:07;;;;;;;4.72;1.83;;;;;;;1.35;100.00;96713.34;5138078;27;20047;-62
2023/03/08 08:36:33;;;;;;;4.43;1.75;;;;;;;1.52;100.00;96717.44;5138010;28;20099;-62
2023/03/08 08:39:00;;;;;;;10.18;2.22;;;;;;;1.75;100.00;96637.09;5138434;27;20057;-59
2023/03/08 08:41:28;;;;;;;4.65;2.20;;;;;;;1.87;100.00;96580.13;5137889;28;20051;-62
2023/03/08 08:43:57;;;;;;;6.72;2.53;;;;;;;1.77;100.00;96601.63;5137977;27;20061;-63
2023/03/08 08:46:24;;;;;;;8.38;1.65;;;;;;;1.49;100.00;96621.75;5138207;28;20591;-61
2023/03/08 08:48:50;;;;;;;4.28;2.10;;;;;;;1.77;100.00;96696.94;5137880;28;20047;-63
2023/03/08 08:51:17;;;;;;;3.78;1.60;;;;;;;1.58;100.00;96624.16;5138040;28;20062;-62
2023/03/08 08:53:43;;;;;;;7.03;1.80;;;;;;;1.76;100.00;96635.94;5120011;28;20047;-62
2023/03/08 08:56:11;;;;;;;6.88;2.55;;;;;;;1.41;100.00;96647.09;5138158;27;20047;-61
2023/03/08 08:58:38;;;;;;;4.80;1.75;;;;;;;1.29;100.00;96712.88;5137702;28;20043;-61
2023/03/08 09:01:04;;;;;;;4.70;1.83;;;;;;;1.21;100.00;96754.41;5138312;27;20556;-63
2023/03/08 09:03:30;;;;;;;4.15;1.98;;;;;;;1.17;100.00;96808.31;5137753;28;20047;-61
2023/03/08 09:05:58;;;;;;;4.78;1.73;;;;;;;1.38;100.00;96828.72;5138047;27;20085;-63
2023/03/08 09:08:25;;;;;;;6.90;1.65;;;;;;;1.59;100.00;96795.84;5137795;28;20055;-62
2023/03/08 09:10:51;;;;;;;6.47;2.40;;;;;;;1.42;100.00;96816.81;5137829;28;20076;-61
2023/03/08 09:13:17;;;;;;;2.80;1.58;;;;;;;1.27;100.00;96816.97;5119792;28;20062;-63
2023/03/08 09:15:43;;;;;;;6.80;1.75;;;;;;;1.59;100.00;96847.94;5137735;28;20051;-61
2023/03/08 09:18:10;;;;;;;4.32;1.83;;;;;;;2.10;100.00;96852.94;5137485;27;20099;-63
2023/03/08 09:20:36;;;;;;;8.70;1.98;;;;;;;2.30;100.00;96817.63;5137575;28;20055;-60
2023/03/08 09:23:02;;;;;;;5.32;1.77;;;;;;;2.27;100.00;96697.53;5137650;27;20047;-60
2023/03/08 09:25:29;;;;;;;4.22;2.03;;;;;;;3.02;100.00;96635.94;5137416;28;20055;-63
2023/03/08 09:27:56;;;;;;;5.10;2.20;;;;;;;2.98;100.00;96532.28;5137794;28;20113;-62
2023/03/08 09:30:22;;;;;;;5.10;2.30;;;;;;;3.18;100.00;96392.00;5137296;28;20051;-62
2023/03/08 09:32:48;;;;;;;4.97;1.92;;;;;;;3.11;100.00;96310.78;5137753;27;20054;-61
2023/03/08 09:35:14;;;;;;;4.55;2.35;;;;;;;2.73;100.00;96212.94;5137165;27;20083;-63
2023/03/08 09:37:41;;;;;;;2.30;1.60;;;;;;;2.48;100.00;96204.78;5137628;27;20053;-61
2023/03/08 09:40:17;;;;;;;6.82;2.10;;;;;;;3.23;100.00;96240.03;5137430;28;20051;-63
2023/03/08 09:42:47;;;;;;;5.78;2.17;;;;;;;3.13;100.00;96173.09;5137153;27;20043;-64
2023/03/08 09:45:19;;;;;;;4.55;2.67;;;;;;;3.46;100.00;96146.75;5140625;27;20107;-62
2023/03/08 09:47:49;;;;;;;7.55;2.55;;;;;;;3.82;100.00;96085.06;5140987;28;20055;-60
2023/03/08 09:50:40;;;;;;;4.45;1.67;;;;;;;3.62;100.00;96038.72;5141046;28;20046;-61
2023/03/08 09:53:20;;;;;;;5.68;2.38;;;;;;;3.49;100.00;96010.53;5140779;28;20051;-62
2023/03/08 09:55:51;;;;;;;3.65;2.03;;;;;;;3.32;100.00;96025.72;5140590;28;20047;-62
2023/03/08 09:58:27;;;;;;;3.95;2.03;;;;;;;3.25;100.00;96036.56;5140498;28;20051;-62
2023/03/08 10:00:56;;;;;;;5.85;2.22;;;;;;;3.09;100.00;96020.00;5123961;28;20058;-61
2023/03/08 10:03:52;;;;;;;6.07;2.15;;;;;;;2.87;100.00;96038.25;5140943;27;20047;-63
2023/03/08 10:06:25;;;;;;;4.10;2.20;;;;;;;2.97;100.00;96057.16;5140561;28;20050;-63
2023/03/08 10:08:56;;;;;;;5.25;1.73;;;;;;;3.38;100.00;96034.22;5140941;27;20062;-61
2023/03/08 10:11:30;;;;;;;4.97;2.40;;;;;;;3.11;100.00;96021.16;5139766;27;20054;-64
2023/03/08 10:14:02;;;;;;;3.60;2.35;;;;;;;3.04;100.00;96032.78;5140595;28;20062;-63
2023/03/08 10:16:33;;;;;;;7.38;3.10;;;;;;;3.39;100.00;96052.00;5140343;28;20050;-61
2023/03/08 10:19:15;;;;;;;3.80;2.05;;;;;;;3.43;100.00;96044.63;5140330;28;20047;-63
2023/03/08 10:21:43;;;;;;;6.78;2.55;;;;;;;3.18;100.00;96020.38;5140735;28;20107;-61
2023/03/08 10:24:15;;;;;;;5.32;2.20;;;;;;;3.56;100.00;95998.91;5140118;28;20050;-61
2023/03/08 10:26:42;;;;;;;3.97;2.38;;;;;;;3.42;100.00;96002.47;5140896;28;20055;-60
2023/03/08 10:29:11;;;;;;;4.15;2.47;;;;;;;3.45;100.00;95998.97;5140133;28;20058;-61
2023/03/08 10:31:37;;;;;;;5.90;2.38;;;;;;;3.56;100.00;95998.91;5140604;28;20107;-63
2023/03/08 10:34:12;;;;;;;6.70;2.30;;;;;;;4.35;100.00;96001.81;5139961;27;20054;-62
2023/03/08 10:36:48;;;;;;;5.22;2.15;;;;;;;4.05;100.00;95994.31;5140602;28;20055;-61
2023/03/08 10:39:15;;;;;;;6.15;2.47;;;;;;;3.71;100.00;96041.78;5140003;28;20047;-63
2023/03/08 10:41:44;;;;;;;4.80;2.22;;;;;;;3.75;100.00;96041.75;5140219;27;20332;-62
2023/03/08 10:44:15;;;;;;;8.18;2.65;;;;;;;3.83;100.00;96026.97;5140327;27;20057;-63
2023/03/08 10:46:49;;;;;;;2.97;2.10;;;;;;;3.89;100.00;96051.72;5139956;28;20107;-63
2023/03/08 10:49:17;;;;;;;4.30;2.63;;;;;;;3.61;100.00;96074.34;5140316;27;20106;-61
2023/03/08 10:51:52;;;;;;;7.50;2.58;;;;;;;3.76;100.00;96102.91;5139820;27;20054;-62
2023/03/08 10:54:19;;;;;;;5.60;2.70;;;;;;;4.47;100.00;96071.88;5139581;27;20051;-63
2023/03/08 10:56:51;;;;;;;5.35;2.28;;;;;;;4.01;100.00;96124.47;5138935;28;20278;-61
2023/03/08 10:59:22;;;;;;;4.65;2.20;;;;;;;4.27;100.00;96104.16;5139497;28;20051;-62
2023/03/08 11:01:50;;;;;;;3.25;2.67;;;;;;;4.96;100.00;96205.59;5139786;28;20051;-63
2023/03/08 11:04:18;;;;;;;4.10;3.22;;;;;;;5.01;100.00;96280.44;5139449;27;20051;-60
2023/03/08 11:06:45;;;;;;;5.07;2.42;;;;;;;3.79;100.00;96335.16;5139827;28;20066;-62
2023/03/08 11:09:20;;;;;;;5.22;2.78;;;;;;;3.99;100.00;96271.22;5139556;27;20055;-63
2023/03/08 11:11:46;;;;;;;9.70;2.58;;;;;;;4.18;100.00;96274.66;5139893;27;20043;-63
2023/03/08 11:14:14;;;;;;;8.55;3.10;;;;;;;4.53;100.00;96287.28;5139340;28;20066;-60
2023/03/08 11:16:50;;;;;;;2.90;2.42;;;;;;;4.27;100.00;96325.78;5139842;28;20051;-61
2023/03/08 11:19:45;;;;;;;5.93;2.30;;;;;;;4.54;100.00;96279.94;5139567;27;20047;-60
2023/03/08 11:22:23;;;;;;;5.05;3.60;;;;;;;4.16;100.00;96287.81;5132476;28;20047;-61
2023/03/08 11:25:03;;;;;;;3.42;2.50;;;;;;;3.35;100.00;96301.13;5139592;28;20051;-60
2023/03/08 11:27:43;;;;;;;3.85;2.42;;;;;;;3.81;100.00;96256.94;5139278;28;20061;-63
2023/03/08 11:30:20;;;;;;;4.70;2.67;;;;;;;3.45;100.00;96261.66;5139708;28;20057;-60